createdAt,value
2024-04-22T00:00:25.661Z,3.91
2024-04-22T00:02:55.611Z,3.87
2024-04-22T00:05:25.559Z,3.80
2024-04-22T00:07:55.490Z,3.74
2024-04-22T00:10:26.010Z,3.74
2024-04-22T00:12:56.022Z,3.74
2024-04-22T00:15:26.120Z,3.73
2024-04-22T00:17:56.087Z,3.71
2024-04-22T00:20:26.181Z,3.72
2024-04-22T00:22:56.095Z,3.70
2024-04-22T00:25:26.203Z,3.67
2024-04-22T00:27:56.138Z,3.65
2024-04-22T00:30:26.501Z,3.59
2024-04-22T00:32:56.458Z,3.54
2024-04-22T00:35:26.563Z,3.52
2024-04-22T00:37:56.511Z,3.49
2024-04-22T00:40:26.878Z,3.48
2024-04-22T00:42:56.903Z,3.42
2024-04-22T00:45:27.042Z,3.42
2024-04-22T00:47:57.393Z,3.36
2024-04-22T00:50:27.870Z,3.32
2024-04-22T00:52:58.617Z,3.27
2024-04-22T00:55:30.005Z,3.24
2024-04-22T00:58:04.416Z,3.19
2024-04-22T01:00:35.918Z,3.14
2024-04-22T01:03:06.677Z,3.09
2024-04-22T01:05:37.318Z,3.04
2024-04-22T01:08:08.140Z,3.00
2024-04-22T01:10:38.843Z,2.93
2024-04-22T01:13:08.906Z,2.87
2024-04-22T01:15:39.166Z,2.81
2024-04-22T01:18:09.192Z,2.77
2024-04-22T01:20:39.171Z,2.73
2024-04-22T01:23:09.115Z,2.68
2024-04-22T01:25:44.193Z,2.63
2024-04-22T01:28:14.328Z,2.59
2024-04-22T01:30:44.599Z,2.56
2024-04-22T01:33:14.613Z,2.52
2024-04-22T01:35:44.678Z,2.49
2024-04-22T01:38:14.651Z,2.45
2024-04-22T01:40:44.660Z,2.42
2024-04-22T01:43:14.926Z,2.40
2024-04-22T01:45:44.960Z,2.39
2024-04-22T01:48:14.966Z,2.35
2024-04-22T01:50:46.593Z,2.34
2024-04-22T01:53:16.575Z,2.29
2024-04-22T01:55:46.520Z,2.28
2024-04-22T01:58:16.478Z,2.26
2024-04-22T02:00:46.436Z,2.23
2024-04-22T02:03:16.501Z,2.20
2024-04-22T02:05:46.472Z,2.17
2024-04-22T02:08:16.502Z,2.15
2024-04-22T02:10:46.651Z,2.11
2024-04-22T02:13:16.733Z,2.09
2024-04-22T02:15:46.671Z,2.05
2024-04-22T02:18:18.232Z,2.00
2024-04-22T02:20:48.353Z,2.01
2024-04-22T02:23:18.261Z,1.99
2024-04-22T02:25:48.305Z,1.98
2024-04-22T02:28:18.321Z,1.96
2024-04-22T02:30:48.444Z,1.93
2024-04-22T02:33:18.706Z,1.90
2024-04-22T02:35:48.678Z,1.88
2024-04-22T02:38:18.775Z,1.86
2024-04-22T02:40:49.074Z,1.83
2024-04-22T02:43:19.269Z,1.82
2024-04-22T02:45:49.376Z,1.81
2024-04-22T02:48:19.380Z,1.80
2024-04-22T02:50:49.599Z,1.76
2024-04-22T02:53:19.599Z,1.76
2024-04-22T02:55:49.583Z,1.72
2024-04-22T02:58:19.613Z,1.71
2024-04-22T03:00:51.542Z,1.67
2024-04-22T03:03:21.466Z,1.66
2024-04-22T03:05:51.398Z,1.64
2024-04-22T03:08:21.327Z,1.63
2024-04-22T03:10:51.276Z,1.61
2024-04-22T03:13:21.214Z,1.59
2024-04-22T03:15:51.222Z,1.57
2024-04-22T03:18:21.189Z,1.55
2024-04-22T03:20:51.166Z,1.55
2024-04-22T03:23:21.087Z,1.54
2024-04-22T03:25:51.006Z,1.54
2024-04-22T03:28:21.070Z,1.55
2024-04-22T03:30:51.085Z,1.55
2024-04-22T03:33:21.017Z,1.55
2024-04-22T03:35:50.943Z,1.52
2024-04-22T03:38:21.642Z,1.51
2024-04-22T03:40:51.590Z,1.46
2024-04-22T03:43:21.510Z,1.44
2024-04-22T03:46:05.473Z,1.43
2024-04-22T03:49:04.366Z,1.39
2024-04-22T03:51:34.525Z,1.35
2024-04-22T03:54:04.707Z,1.32
2024-04-22T03:56:35.072Z,1.31
2024-04-22T03:59:05.076Z,1.28
2024-04-22T04:01:35.014Z,1.27
2024-04-22T04:04:05.995Z,1.25
2024-04-22T04:06:35.950Z,1.24
2024-04-22T04:09:05.940Z,1.25
2024-04-22T04:11:38.116Z,1.28
2024-04-22T04:14:09.071Z,1.29
2024-04-22T04:16:39.094Z,1.30
2024-04-22T04:19:09.776Z,1.29
2024-04-22T04:21:39.975Z,1.37
2024-04-22T04:24:10.049Z,1.39
2024-04-22T04:26:42.414Z,1.42
2024-04-22T04:29:12.335Z,1.46
2024-04-22T04:31:42.334Z,1.53
2024-04-22T04:34:12.677Z,1.60
2024-04-22T04:36:43.083Z,1.67
2024-04-22T04:39:13.558Z,1.73
2024-04-22T04:41:43.630Z,1.80
2024-04-22T04:44:13.640Z,1.89
2024-04-22T04:46:44.261Z,2.00
2024-04-22T04:49:14.390Z,2.08
2024-04-22T04:51:44.290Z,2.17
2024-04-22T04:54:14.256Z,2.29
2024-04-22T04:56:44.544Z,2.43
2024-04-22T04:59:14.495Z,2.56
2024-04-22T05:01:44.707Z,2.65
2024-04-22T05:04:14.932Z,2.77
2024-04-22T05:06:44.939Z,2.91
2024-04-22T05:09:16.183Z,3.06
2024-04-22T05:11:47.102Z,3.20
2024-04-22T05:14:17.118Z,3.34
2024-04-22T05:16:47.680Z,3.46
2024-04-22T05:19:19.088Z,3.60
2024-04-22T05:21:51.340Z,3.70
2024-04-22T05:24:21.399Z,3.85
2024-04-22T05:26:51.368Z,3.97
2024-04-22T05:29:21.314Z,4.09
2024-04-22T05:31:51.377Z,4.22
2024-04-22T05:34:39.521Z,4.34
2024-04-22T05:37:09.559Z,4.48
2024-04-22T05:39:40.080Z,4.58
2024-04-22T05:42:10.436Z,4.67
2024-04-22T05:44:40.445Z,4.79
2024-04-22T05:47:10.370Z,4.90
2024-04-22T05:49:40.444Z,5.02
2024-04-22T05:52:10.664Z,5.10
2024-04-22T05:54:41.469Z,5.20
2024-04-22T05:57:11.404Z,5.27
2024-04-22T05:59:41.290Z,5.33
2024-04-22T06:02:11.266Z,5.40
2024-04-22T06:04:41.605Z,5.47
2024-04-22T06:07:11.669Z,5.56
2024-04-22T06:09:41.932Z,5.63
2024-04-22T06:12:17.953Z,5.65
2024-04-22T06:14:49.990Z,5.71
2024-04-22T06:17:20.004Z,5.82
2024-04-22T06:19:50.190Z,5.89
2024-04-22T06:22:20.374Z,5.97
2024-04-22T06:24:50.493Z,6.02
2024-04-22T06:27:20.590Z,6.10
2024-04-22T06:29:50.521Z,6.18
2024-04-22T06:32:20.554Z,6.22
2024-04-22T06:34:50.818Z,6.24
2024-04-22T06:37:20.817Z,6.38
2024-04-22T06:39:51.208Z,6.45
2024-04-22T06:42:22.610Z,6.51
2024-04-22T06:44:52.549Z,6.54
2024-04-22T06:47:22.591Z,6.67
2024-04-22T06:49:52.665Z,6.83
2024-04-22T06:52:22.735Z,6.97
2024-04-22T06:54:52.696Z,7.15
2024-04-22T06:57:22.631Z,7.28
2024-04-22T06:59:52.591Z,7.33
2024-04-22T07:02:22.830Z,7.35
2024-04-22T07:04:53.302Z,7.41
2024-04-22T07:07:23.448Z,7.44
2024-04-22T07:09:53.824Z,7.54
2024-04-22T07:12:24.083Z,7.62
2024-04-22T07:14:54.196Z,7.69
2024-04-22T07:17:25.138Z,7.74
2024-04-22T07:19:55.376Z,7.83
2024-04-22T07:22:28.655Z,7.91
2024-04-22T07:25:03.715Z,7.98
2024-04-22T07:27:36.867Z,8.03
2024-04-22T07:30:11.471Z,8.06
2024-04-22T07:32:43.009Z,8.10
2024-04-22T07:35:15.685Z,8.21
2024-04-22T07:37:48.887Z,8.27
2024-04-22T07:40:23.171Z,8.31
2024-04-22T07:42:53.310Z,8.40
2024-04-22T07:45:27.270Z,8.54
2024-04-22T07:47:59.291Z,8.64
2024-04-22T07:50:29.800Z,8.53
2024-04-22T07:53:01.467Z,8.34
2024-04-22T07:55:35.240Z,8.39
2024-04-22T07:58:07.375Z,8.53
2024-04-22T08:00:39.950Z,8.65
2024-04-22T08:03:12.257Z,8.78
2024-04-22T08:05:43.383Z,8.92
2024-04-22T08:08:16.839Z,9.12
2024-04-22T08:10:47.086Z,9.33
2024-04-22T08:13:17.775Z,9.51
2024-04-22T08:15:48.062Z,9.66
2024-04-22T08:18:18.350Z,9.70
2024-04-22T08:20:48.596Z,9.75
2024-04-22T08:23:18.666Z,9.84
2024-04-22T08:25:48.782Z,10.01
2024-04-22T08:28:18.954Z,10.13
2024-04-22T08:30:49.349Z,10.17
2024-04-22T08:33:20.086Z,10.25
2024-04-22T08:35:50.383Z,10.31
2024-04-22T08:38:20.931Z,10.32
2024-04-22T08:40:51.168Z,10.31
2024-04-22T08:43:21.689Z,10.36
2024-04-22T08:45:51.790Z,10.36
2024-04-22T08:48:22.444Z,10.37
2024-04-22T08:50:54.392Z,10.50
2024-04-22T08:53:24.436Z,10.44
2024-04-22T08:55:55.755Z,10.33
2024-04-22T08:58:26.161Z,10.44
2024-04-22T09:00:58.210Z,10.58
2024-04-22T09:03:28.370Z,10.63
2024-04-22T09:05:58.527Z,10.66
2024-04-22T09:08:28.816Z,10.67
2024-04-22T09:13:33.746Z,10.71
2024-04-22T09:16:04.872Z,10.59
2024-04-22T09:18:37.392Z,10.30
2024-04-22T09:21:11.452Z,10.19
2024-04-22T09:23:42.501Z,10.20
2024-04-22T09:26:16.011Z,10.30
2024-04-22T09:28:50.678Z,10.45
2024-04-22T09:31:21.926Z,10.47
2024-04-22T09:33:54.717Z,10.56
2024-04-22T09:36:26.834Z,10.70
2024-04-22T09:38:59.191Z,10.80
2024-04-22T09:41:31.324Z,10.92
2024-04-22T09:44:08.435Z,11.06
2024-04-22T09:46:44.657Z,11.21
2024-04-22T09:49:19.052Z,11.25
2024-04-22T09:51:51.418Z,11.21
2024-04-22T09:54:21.642Z,11.25
2024-04-22T09:56:54.158Z,11.03
2024-04-22T09:59:25.198Z,10.74
2024-04-22T10:01:55.687Z,10.57
2024-04-22T10:04:26.186Z,10.52
2024-04-22T10:06:56.883Z,10.45
2024-04-22T10:09:28.711Z,10.47
2024-04-22T10:12:08.176Z,10.51
2024-04-22T10:14:38.479Z,10.51
2024-04-22T10:17:09.271Z,10.40
2024-04-22T10:19:39.891Z,10.30
2024-04-22T10:22:10.433Z,10.14
2024-04-22T10:24:41.772Z,9.94
2024-04-22T10:27:14.964Z,9.76
2024-04-22T10:29:45.345Z,9.77
2024-04-22T10:32:15.503Z,9.82
2024-04-22T10:34:46.440Z,9.74
2024-04-22T10:37:16.948Z,9.76
2024-04-22T10:39:47.648Z,9.75
2024-04-22T10:42:19.206Z,9.63
2024-04-22T10:44:49.679Z,9.64
2024-04-22T10:47:20.163Z,9.82
2024-04-22T10:49:50.937Z,9.94
2024-04-22T10:52:22.001Z,9.94
2024-04-22T10:54:53.517Z,9.96
2024-04-22T10:57:24.087Z,10.15
2024-04-22T10:59:54.925Z,10.34
2024-04-22T11:02:26.091Z,10.46
2024-04-22T11:04:56.933Z,10.71
2024-04-22T11:07:30.299Z,10.92
2024-04-22T11:10:01.278Z,11.10
2024-04-22T11:12:32.254Z,11.27
2024-04-22T11:15:03.415Z,11.48
2024-04-22T11:17:33.964Z,11.65
2024-04-22T11:20:15.465Z,11.69
2024-04-22T11:22:46.802Z,11.75
2024-04-22T11:25:17.534Z,11.65
2024-04-22T11:27:48.418Z,11.44
2024-04-22T11:30:19.785Z,11.29
2024-04-22T11:32:51.755Z,11.23
2024-04-22T11:35:22.760Z,11.25
2024-04-22T11:37:55.978Z,11.28
2024-04-22T11:40:26.354Z,11.30
2024-04-22T11:42:56.639Z,11.19
2024-04-22T11:45:26.928Z,11.03
2024-04-22T11:47:57.088Z,10.90
2024-04-22T11:50:27.232Z,10.87
2024-04-22T11:53:00.348Z,10.89
2024-04-22T11:55:35.809Z,10.94
2024-04-22T11:58:06.447Z,11.03
2024-04-22T12:00:37.725Z,11.20
2024-04-22T12:03:08.244Z,11.40
2024-04-22T12:05:38.591Z,11.81
2024-04-22T12:08:10.024Z,12.48
2024-04-22T12:10:40.228Z,13.13
2024-04-22T12:13:10.382Z,13.55
2024-04-22T12:15:40.478Z,13.96
2024-04-22T12:18:10.970Z,14.32
2024-04-22T12:20:41.296Z,14.57
2024-04-22T12:23:11.605Z,14.59
2024-04-22T12:25:41.834Z,14.32
2024-04-22T12:39:28.340Z,12.45
2024-04-22T12:41:58.217Z,11.77
2024-04-22T12:48:47.868Z,11.02
2024-04-22T12:51:17.768Z,10.68
2024-04-22T12:53:47.648Z,10.48
2024-04-22T12:56:17.783Z,10.36
2024-04-22T12:58:47.868Z,10.33
2024-04-22T13:01:18.557Z,10.46
2024-04-22T13:03:48.805Z,10.69
2024-04-22T13:06:18.832Z,10.92
2024-04-22T13:08:48.951Z,11.13
2024-04-22T13:11:22.893Z,11.30
2024-04-22T13:13:53.081Z,11.50
2024-04-22T13:16:23.242Z,11.74
2024-04-22T13:18:53.203Z,11.96
2024-04-22T13:21:23.284Z,12.21
2024-04-22T13:23:53.278Z,12.55
2024-04-22T13:26:23.681Z,12.96
2024-04-22T13:28:53.663Z,13.38
2024-04-22T13:31:32.537Z,13.87
2024-04-22T13:34:10.456Z,14.34
2024-04-22T13:36:40.417Z,14.60
2024-04-22T13:39:10.355Z,14.82
2024-04-22T13:41:40.495Z,14.90
2024-04-22T13:44:11.003Z,14.88
2024-04-22T13:46:43.574Z,14.93
2024-04-22T13:49:14.936Z,14.92
2024-04-22T13:51:46.557Z,14.87
2024-04-22T13:54:16.714Z,14.59
2024-04-22T13:56:46.627Z,14.25
2024-04-22T13:59:16.652Z,14.10
2024-04-22T14:01:47.563Z,14.02
2024-04-22T14:04:17.604Z,13.94
2024-04-22T14:06:47.539Z,13.86
2024-04-22T14:09:17.646Z,13.78
2024-04-22T14:11:47.789Z,13.70
2024-04-22T14:14:18.162Z,13.59
2024-04-22T14:16:48.676Z,13.35
2024-04-22T14:19:18.701Z,13.21
2024-04-22T14:21:48.749Z,13.06
2024-04-22T14:24:18.807Z,12.93
2024-04-22T14:26:48.864Z,12.85
2024-04-22T14:29:19.007Z,12.75
2024-04-22T14:31:49.276Z,12.61
2024-04-22T14:34:19.455Z,12.43
2024-04-22T14:36:49.713Z,12.29
2024-04-22T14:39:19.705Z,12.19
2024-04-22T14:41:49.903Z,12.26
2024-04-22T14:44:20.104Z,12.41
2024-04-22T14:46:50.608Z,12.69
2024-04-22T14:49:20.800Z,12.97
2024-04-22T14:51:50.788Z,13.17
2024-04-22T14:54:21.074Z,13.21
2024-04-22T14:56:51.417Z,13.17
2024-04-22T14:59:21.613Z,13.13
2024-04-22T15:01:52.478Z,13.23
2024-04-22T15:04:22.799Z,13.42
2024-04-22T15:06:54.201Z,13.60
2024-04-22T15:09:25.769Z,13.73
2024-04-22T15:11:55.803Z,13.85
2024-04-22T15:14:26.041Z,14.00
2024-04-22T15:16:56.087Z,14.22
2024-04-22T15:19:26.404Z,14.43
2024-04-22T15:21:56.382Z,14.66
2024-04-22T15:24:26.622Z,14.78
2024-04-22T15:26:56.644Z,14.90
2024-04-22T15:29:26.670Z,15.10
2024-04-22T15:31:56.780Z,15.32
2024-04-22T15:34:27.040Z,15.54
2024-04-22T15:36:57.114Z,15.72
2024-04-22T15:39:28.501Z,15.85
2024-04-22T15:41:58.438Z,15.75
2024-04-22T15:44:28.372Z,15.56
2024-04-22T15:46:58.378Z,15.40
2024-04-22T15:49:28.393Z,15.25
2024-04-22T15:52:00.758Z,14.94
2024-04-22T15:54:32.429Z,14.36
2024-04-22T15:57:02.423Z,13.70
2024-04-22T15:59:32.430Z,13.08
2024-04-22T16:02:02.484Z,12.67
2024-04-22T16:04:32.603Z,12.27
2024-04-22T16:07:02.605Z,11.87
2024-04-22T16:12:03.218Z,11.28
2024-04-22T16:14:33.352Z,11.26
2024-04-22T16:17:03.304Z,11.28
2024-04-22T16:19:33.675Z,11.27
2024-04-22T16:22:03.847Z,11.18
2024-04-22T16:24:33.843Z,11.13
2024-04-22T16:27:04.707Z,11.07
2024-04-22T16:29:34.711Z,11.04
2024-04-22T16:32:04.883Z,11.08
2024-04-22T16:34:35.652Z,11.14
2024-04-22T16:37:05.788Z,11.19
2024-04-22T16:39:36.890Z,11.20
2024-04-22T16:42:07.320Z,11.19
2024-04-22T16:44:38.198Z,11.17
2024-04-22T16:47:08.221Z,11.10
2024-04-22T16:49:38.504Z,11.17
2024-04-22T16:52:09.018Z,11.47
2024-04-22T16:54:38.983Z,11.97
2024-04-22T16:57:11.363Z,12.37
2024-04-22T16:59:44.570Z,12.40
2024-04-22T17:02:15.039Z,12.38
2024-04-22T17:04:45.305Z,12.55
2024-04-22T17:07:15.275Z,12.85
2024-04-22T17:09:45.401Z,13.32
2024-04-22T17:12:15.369Z,13.74
2024-04-22T17:14:45.494Z,14.18
2024-04-22T17:17:15.472Z,14.66
2024-04-22T17:19:45.570Z,15.12
2024-04-22T17:22:15.547Z,15.54
2024-04-22T17:27:15.496Z,16.19
2024-04-22T17:29:45.433Z,16.41
2024-04-22T17:32:15.523Z,16.59
2024-04-22T17:34:45.535Z,16.76
2024-04-22T17:37:18.869Z,16.81
2024-04-22T17:39:49.331Z,16.81
2024-04-22T17:42:21.992Z,16.86
2024-04-22T17:44:52.093Z,16.82
2024-04-22T17:47:22.134Z,16.70
2024-04-22T17:49:52.122Z,16.63
2024-04-22T17:52:22.136Z,16.52
2024-04-22T17:54:54.888Z,16.18
2024-04-22T17:57:24.849Z,15.98
2024-04-22T17:59:54.792Z,15.83
2024-04-22T18:02:24.916Z,15.70
2024-04-22T18:04:55.994Z,15.54
2024-04-22T18:07:26.344Z,15.09
2024-04-22T18:09:56.310Z,14.69
2024-04-22T18:12:26.234Z,14.19
2024-04-22T18:14:56.163Z,13.62
2024-04-22T18:17:26.203Z,12.99
2024-04-22T18:19:56.181Z,12.41
2024-04-22T18:22:29.711Z,11.82
2024-04-22T18:25:00.193Z,11.28
2024-04-22T18:27:30.420Z,10.77
2024-04-22T18:30:02.738Z,10.30
2024-04-22T18:32:33.382Z,9.91
2024-04-22T18:35:03.445Z,9.55
2024-04-22T18:37:34.064Z,9.24
2024-04-22T18:40:04.496Z,8.95
2024-04-22T18:42:34.776Z,8.65
2024-04-22T18:45:05.335Z,8.35
2024-04-22T18:47:37.140Z,8.08
2024-04-22T18:50:08.151Z,7.81
2024-04-22T18:52:38.504Z,7.63
2024-04-22T18:55:09.475Z,7.47
2024-04-22T18:57:39.610Z,7.31
2024-04-22T19:00:11.864Z,7.17
2024-04-22T19:02:42.151Z,7.02
2024-04-22T19:05:12.640Z,6.89
2024-04-22T19:07:43.028Z,6.74
2024-04-22T19:10:13.190Z,6.62
2024-04-22T19:12:43.336Z,6.52
2024-04-22T19:15:13.549Z,6.40
2024-04-22T19:17:43.774Z,6.29
2024-04-22T19:20:14.247Z,6.18
2024-04-22T19:22:44.297Z,6.08
2024-04-22T19:25:14.460Z,5.99
2024-04-22T19:27:44.929Z,5.91
2024-04-22T19:30:15.399Z,5.84
2024-04-22T19:32:45.680Z,5.76
2024-04-22T19:35:17.083Z,5.68
2024-04-22T19:37:47.387Z,5.60
2024-04-22T19:40:18.177Z,5.56
2024-04-22T19:42:48.652Z,5.51
2024-04-22T19:45:20.965Z,5.47
2024-04-22T19:47:51.119Z,5.41
2024-04-22T19:50:23.188Z,5.34
2024-04-22T19:52:53.610Z,5.27
2024-04-22T19:55:24.079Z,5.21
2024-04-22T19:57:54.945Z,5.16
2024-04-22T20:00:25.344Z,5.09
2024-04-22T20:02:55.469Z,4.97
2024-04-22T20:05:25.888Z,4.87
2024-04-22T20:07:56.407Z,4.77
2024-04-22T20:10:27.508Z,4.71
2024-04-22T20:12:57.833Z,4.66
2024-04-22T20:15:30.246Z,4.60
2024-04-22T20:18:16.273Z,4.54
2024-04-22T20:20:55.497Z,4.48
2024-04-22T20:23:25.740Z,4.42
2024-04-22T20:26:00.238Z,4.37
2024-04-22T20:28:30.581Z,4.31
2024-04-22T20:31:03.615Z,4.27
2024-04-22T20:33:33.766Z,4.24
2024-04-22T20:36:04.264Z,4.19
2024-04-22T20:38:34.995Z,4.11
2024-04-22T20:41:05.818Z,4.07
2024-04-22T20:43:36.235Z,4.07
2024-04-22T20:46:06.533Z,4.08
2024-04-22T20:48:39.381Z,4.10
2024-04-22T20:51:09.866Z,4.08
2024-04-22T20:53:39.845Z,4.03
2024-04-22T20:56:10.052Z,4.02
2024-04-22T20:58:40.012Z,4.02
2024-04-22T21:01:11.020Z,4.03
2024-04-22T21:03:41.206Z,4.04
2024-04-22T21:06:11.198Z,4.06
2024-04-22T21:08:41.105Z,4.05
2024-04-22T21:11:11.199Z,4.07
2024-04-22T21:13:45.854Z,4.09
2024-04-22T21:16:15.822Z,4.08
2024-04-22T21:18:45.785Z,4.03
2024-04-22T21:21:15.767Z,3.98
2024-04-22T21:23:45.726Z,3.96
2024-04-22T21:26:15.800Z,3.95
2024-04-22T21:28:45.808Z,3.93
2024-04-22T21:31:15.863Z,3.93
2024-04-22T21:33:58.668Z,3.95
2024-04-22T21:36:35.739Z,3.91
2024-04-22T21:39:06.027Z,3.90
2024-04-22T21:41:35.954Z,3.92
2024-04-22T21:44:06.259Z,3.92
2024-04-22T21:46:36.238Z,3.93
2024-04-22T21:49:06.209Z,3.91
2024-04-22T21:51:36.135Z,3.88
2024-04-22T21:54:06.299Z,3.84
2024-04-22T21:56:33.461Z,3.80
2024-04-22T21:59:38.599Z,3.76
2024-04-22T22:02:43.585Z,3.70
2024-04-22T22:05:49.106Z,3.53
2024-04-22T22:08:16.258Z,3.44
2024-04-22T22:10:46.300Z,3.42
2024-04-22T22:13:16.540Z,3.44
2024-04-22T22:15:46.518Z,3.45
2024-04-22T22:18:16.537Z,3.46
2024-04-22T22:20:48.252Z,3.47
2024-04-22T22:23:18.223Z,3.47
2024-04-22T22:25:48.111Z,3.46
2024-04-22T22:28:18.065Z,3.42
2024-04-22T22:30:47.973Z,3.39
2024-04-22T22:33:17.890Z,3.38
2024-04-22T22:35:47.840Z,3.36
2024-04-22T22:38:17.817Z,3.35
2024-04-22T22:40:47.787Z,3.34
2024-04-22T22:43:17.720Z,3.33
2024-04-22T22:45:47.668Z,3.31
2024-04-22T22:48:17.799Z,3.27
2024-04-22T22:50:47.956Z,3.23
2024-04-22T22:53:17.844Z,3.19
2024-04-22T22:55:47.855Z,3.15
2024-04-22T22:58:17.941Z,3.12
2024-04-22T23:00:47.930Z,3.08
2024-04-22T23:03:17.882Z,3.06
2024-04-22T23:05:47.815Z,3.03
2024-04-22T23:08:17.751Z,2.99
2024-04-22T23:10:47.654Z,2.98
2024-04-22T23:13:17.599Z,2.99
2024-04-22T23:15:47.496Z,3.01
2024-04-22T23:18:17.514Z,3.01
2024-04-22T23:20:47.421Z,2.98
2024-04-22T23:23:17.337Z,2.92
2024-04-22T23:25:47.275Z,2.87
2024-04-22T23:28:17.229Z,2.85
2024-04-22T23:30:47.148Z,2.82
2024-04-22T23:33:17.148Z,2.78
2024-04-22T23:35:47.077Z,2.75
2024-04-22T23:38:17.041Z,2.72
2024-04-22T23:40:47.011Z,2.70
2024-04-22T23:43:16.990Z,2.68
2024-04-22T23:45:46.924Z,2.65
2024-04-22T23:48:17.131Z,2.62
2024-04-22T23:50:47.142Z,2.58
2024-04-22T23:53:17.108Z,2.52
2024-04-22T23:55:47.090Z,2.48
2024-04-22T23:58:17.125Z,2.47
